Time;durP1;ratioP1;P1;durP2;ratioP2;P2;SDS_P1;SDS_P2;PMS_P1;PMS_P2;Temp;Humidity;BMP_temperature;BMP_pressure;BME280_temperature;BME280_humidity;BME280_pressure;Samples;Min_cycle;Max_cycle;Signal;HPM_P1;HPM_P2
2021/08/31 00:00:58;;;;;;;3.68;2.85;;;;;;;20.54;71.68;100749.19;;;;-58
2021/08/31 00:03:57;;;;;;;2.87;2.67;;;;;;;20.54;71.67;100749.77;;;;-58
2021/08/31 00:06:58;;;;;;;2.94;2.74;;;;;;;20.53;71.67;100747.49;;;;-58
2021/08/31 00:09:58;;;;;;;3.18;2.88;;;;;;;20.53;71.72;100752.70;;;;-57
2021/08/31 00:12:58;;;;;;;3.05;2.84;;;;;;;20.52;71.66;100748.47;;;;-57
2021/08/31 00:15:58;;;;;;;3.41;2.89;;;;;;;20.52;71.71;100750.16;;;;-57
2021/08/31 00:18:58;;;;;;;3.25;2.86;;;;;;;20.51;71.75;100747.80;;;;-52
2021/08/31 00:21:57;;;;;;;3.16;2.87;;;;;;;20.51;71.70;100745.12;;;;-52
2021/08/31 00:24:58;;;;;;;2.91;2.71;;;;;;;20.52;71.70;100746.50;;;;-52
2021/08/31 00:27:57;;;;;;;3.10;2.75;;;;;;;20.52;71.66;100745.55;;;;-52
2021/08/31 00:30:58;;;;;;;3.03;2.61;;;;;;;20.51;71.72;100744.71;;;;-57
2021/08/31 00:33:58;;;;;;;3.80;3.00;;;;;;;20.51;71.73;100746.67;;;;-57
2021/08/31 00:36:57;;;;;;;2.93;2.66;;;;;;;20.50;71.74;100742.81;;;;-57
2021/08/31 00:39:58;;;;;;;3.21;2.91;;;;;;;20.49;71.69;100741.03;;;;-58
2021/08/31 00:42:58;;;;;;;2.91;2.71;;;;;;;20.49;71.67;100743.47;;;;-57
2021/08/31 00:45:58;;;;;;;3.22;2.84;;;;;;;20.49;71.70;100746.89;;;;-57
2021/08/31 00:48:58;;;;;;;2.98;2.71;;;;;;;20.49;71.75;100748.94;;;;-58
2021/08/31 00:51:58;;;;;;;3.93;2.82;;;;;;;20.48;71.72;100744.54;;;;-58
2021/08/31 00:54:58;;;;;;;3.05;2.81;;;;;;;20.48;71.74;100748.37;;;;-58
2021/08/31 00:57:58;;;;;;;2.90;2.69;;;;;;;20.47;71.77;100745.74;;;;-50
2021/08/31 01:00:58;;;;;;;3.46;2.93;;;;;;;20.48;71.74;100747.45;;;;-52
2021/08/31 01:03:58;;;;;;;3.08;2.78;;;;;;;20.47;71.75;100753.47;;;;-52
2021/08/31 01:06:58;;;;;;;2.81;2.61;;;;;;;20.46;71.75;100749.95;;;;-52
2021/08/31 01:09:58;;;;;;;3.21;2.89;;;;;;;20.46;71.75;100755.02;;;;-58
2021/08/31 01:12:58;;;;;;;3.12;2.82;;;;;;;20.47;71.70;100759.50;;;;-57
2021/08/31 01:15:57;;;;;;;3.21;2.93;;;;;;;20.45;71.73;100752.32;;;;-52
2021/08/31 01:18:57;;;;;;;3.58;2.88;;;;;;;20.45;71.73;100756.06;;;;-52
2021/08/31 01:21:58;;;;;;;2.95;2.75;;;;;;;20.45;71.78;100757.86;;;;-52
2021/08/31 01:24:57;;;;;;;3.07;2.85;;;;;;;20.45;71.78;100760.95;;;;-52
2021/08/31 01:27:58;;;;;;;3.06;2.83;;;;;;;20.45;71.76;100762.42;;;;-52
2021/08/31 01:30:58;;;;;;;3.13;2.83;;;;;;;20.44;71.79;100762.17;;;;-58
2021/08/31 01:33:58;;;;;;;3.09;2.73;;;;;;;20.43;71.76;100764.92;;;;-51
2021/08/31 01:36:58;;;;;;;3.02;2.82;;;;;;;20.43;71.80;100768.91;;;;-51
2021/08/31 01:39:57;;;;;;;3.26;2.96;;;;;;;20.43;71.74;100769.48;;;;-50
2021/08/31 01:42:58;;;;;;;2.91;2.71;;;;;;;20.43;71.74;100771.27;;;;-58
2021/08/31 01:45:58;;;;;;;2.89;2.69;;;;;;;20.43;71.82;100775.75;;;;-58
2021/08/31 01:48:57;;;;;;;3.13;2.75;;;;;;;20.42;71.77;100774.45;;;;-58
2021/08/31 01:51:58;;;;;;;3.00;2.69;;;;;;;20.42;71.77;100779.91;;;;-58
2021/08/31 01:54:58;;;;;;;3.00;2.80;;;;;;;20.41;71.77;100784.12;;;;-58
2021/08/31 01:57:57;;;;;;;3.30;2.90;;;;;;;20.41;71.78;100786.31;;;;-57
2021/08/31 02:00:58;;;;;;;3.17;2.87;;;;;;;20.41;71.77;100786.64;;;;-52
2021/08/31 02:03:57;;;;;;;2.98;2.73;;;;;;;20.41;71.77;100785.67;;;;-52
2021/08/31 02:06:58;;;;;;;2.99;2.79;;;;;;;20.41;71.79;100791.86;;;;-52
2021/08/31 02:09:58;;;;;;;3.08;2.73;;;;;;;20.40;71.79;100793.33;;;;-58
2021/08/31 02:12:58;;;;;;;3.07;2.82;;;;;;;20.41;71.75;100798.53;;;;-51
2021/08/31 02:15:58;;;;;;;2.95;2.75;;;;;;;20.40;71.78;100798.91;;;;-53
2021/08/31 02:18:58;;;;;;;2.89;2.69;;;;;;;20.39;71.79;100796.47;;;;-50
2021/08/31 02:21:58;;;;;;;2.90;2.70;;;;;;;20.38;71.78;100795.99;;;;-51
2021/08/31 02:24:58;;;;;;;2.85;2.62;;;;;;;20.39;71.78;100795.42;;;;-52
2021/08/31 02:27:57;;;;;;;3.13;2.87;;;;;;;20.39;71.78;100789.31;;;;-58
2021/08/31 02:30:57;;;;;;;2.89;2.68;;;;;;;20.38;71.82;100789.41;;;;-51
2021/08/31 02:33:58;;;;;;;2.99;2.79;;;;;;;20.38;71.75;100790.59;;;;-51
2021/08/31 02:36:57;;;;;;;2.87;2.67;;;;;;;20.38;71.75;100788.09;;;;-53
2021/08/31 02:39:58;;;;;;;2.90;2.70;;;;;;;20.38;71.80;100787.69;;;;-52
2021/08/31 02:42:58;;;;;;;2.79;2.59;;;;;;;20.38;71.75;100790.21;;;;-52
2021/08/31 02:45:57;;;;;;;3.08;2.88;;;;;;;20.38;71.76;100790.27;;;;-56
2021/08/31 02:48:58;;;;;;;3.26;2.61;;;;;;;20.38;71.78;100790.05;;;;-57
2021/08/31 02:51:58;;;;;;;2.85;2.61;;;;;;;20.37;71.77;100784.25;;;;-57
2021/08/31 02:54:58;;;;;;;2.96;2.71;;;;;;;20.37;71.79;100789.22;;;;-57
2021/08/31 02:57:58;;;;;;;3.03;2.77;;;;;;;20.36;71.81;100786.13;;;;-57
2021/08/31 03:01:27;;;;;;;3.04;2.79;;;;;;;20.36;71.79;100792.72;;;;-57
2021/08/31 03:03:58;;;;;;;2.83;2.62;;;;;;;20.36;71.80;100797.20;;;;-57
2021/08/31 03:06:58;;;;;;;2.97;2.72;;;;;;;20.35;71.79;100801.56;;;;-57
2021/08/31 03:09:57;;;;;;;2.80;2.60;;;;;;;20.34;71.79;100796.28;;;;-58
2021/08/31 03:12:58;;;;;;;2.77;2.57;;;;;;;20.34;71.83;100801.25;;;;-58
2021/08/31 03:15:57;;;;;;;3.06;2.79;;;;;;;20.35;71.75;100802.47;;;;-58
2021/08/31 03:18:57;;;;;;;2.93;2.73;;;;;;;20.35;71.79;100807.52;;;;-58
2021/08/31 03:21:58;;;;;;;2.80;2.60;;;;;;;20.34;71.79;100802.63;;;;-52
2021/08/31 03:24:57;;;;;;;2.99;2.63;;;;;;;20.35;71.69;100803.85;;;;-52
2021/08/31 03:27:58;;;;;;;3.16;2.86;;;;;;;20.34;71.78;100802.39;;;;-58
2021/08/31 03:30:58;;;;;;;2.97;2.77;;;;;;;20.33;71.73;100805.95;;;;-58
2021/08/31 03:33:57;;;;;;;2.91;2.64;;;;;;;20.34;71.77;100813.55;;;;-58
2021/08/31 03:36:58;;;;;;;3.00;2.70;;;;;;;20.34;71.74;100819.41;;;;-58
2021/08/31 03:39:58;;;;;;;2.99;2.78;;;;;;;20.34;71.71;100822.02;;;;-57
2021/08/31 03:42:58;;;;;;;2.78;2.58;;;;;;;20.33;71.73;100819.87;;;;-52
2021/08/31 03:45:58;;;;;;;3.01;2.73;;;;;;;20.32;71.76;100821.42;;;;-52
2021/08/31 03:48:57;;;;;;;2.79;2.59;;;;;;;20.33;71.75;100824.75;;;;-52
2021/08/31 03:51:57;;;;;;;2.87;2.67;;;;;;;20.32;71.76;100826.14;;;;-53
2021/08/31 03:54:58;;;;;;;2.77;2.57;;;;;;;20.32;71.72;100829.39;;;;-57
2021/08/31 03:57:58;;;;;;;2.90;2.70;;;;;;;20.33;71.74;100833.55;;;;-58
2021/08/31 04:00:58;;;;;;;2.81;2.61;;;;;;;20.33;71.71;100833.70;;;;-57
2021/08/31 04:03:57;;;;;;;2.97;2.77;;;;;;;20.32;71.72;100833.30;;;;-57
2021/08/31 04:06:58;;;;;;;3.01;2.73;;;;;;;20.32;71.72;100837.30;;;;-58
2021/08/31 04:09:58;;;;;;;2.79;2.59;;;;;;;20.32;71.76;100845.27;;;;-57
2021/08/31 04:12:57;;;;;;;2.85;2.65;;;;;;;20.32;71.71;100846.81;;;;-57
2021/08/31 04:15:58;;;;;;;3.07;2.80;;;;;;;20.31;71.66;100853.38;;;;-57
2021/08/31 04:18:58;;;;;;;2.89;2.69;;;;;;;20.30;71.70;100857.70;;;;-57
2021/08/31 04:21:57;;;;;;;2.84;2.59;;;;;;;20.30;71.72;100857.37;;;;-57
2021/08/31 04:24:58;;;;;;;3.01;2.75;;;;;;;20.31;71.66;100859.25;;;;-57
2021/08/31 04:27:57;;;;;;;2.81;2.59;;;;;;;20.29;71.75;100864.52;;;;-57
2021/08/31 04:30:57;;;;;;;2.85;2.65;;;;;;;20.30;71.68;100863.23;;;;-57
2021/08/31 04:33:58;;;;;;;2.93;2.69;;;;;;;20.29;71.73;100866.14;;;;-51
2021/08/31 04:36:57;;;;;;;3.13;2.83;;;;;;;20.29;71.73;100866.80;;;;-57
2021/08/31 04:39:58;;;;;;;2.96;2.67;;;;;;;20.29;71.68;100874.55;;;;-57
2021/08/31 04:42:58;;;;;;;2.97;2.72;;;;;;;20.29;71.71;100872.81;;;;-57
2021/08/31 04:45:57;;;;;;;3.15;2.91;;;;;;;20.29;71.74;100870.78;;;;-57
2021/08/31 04:48:58;;;;;;;2.75;2.55;;;;;;;20.28;71.68;100873.80;;;;-57
2021/08/31 04:51:57;;;;;;;2.70;2.50;;;;;;;20.28;71.75;100874.20;;;;-57
2021/08/31 04:54:58;;;;;;;2.89;2.69;;;;;;;20.28;71.73;100875.83;;;;-57
2021/08/31 04:57:58;;;;;;;2.74;2.54;;;;;;;20.28;71.75;100876.64;;;;-56
2021/08/31 05:00:57;;;;;;;2.58;2.38;;;;;;;20.27;71.73;100875.67;;;;-57
2021/08/31 05:03:58;;;;;;;2.87;2.65;;;;;;;20.28;71.71;100881.69;;;;-57
2021/08/31 05:06:58;;;;;;;2.84;2.63;;;;;;;20.28;71.77;100882.59;;;;-56
2021/08/31 05:09:57;;;;;;;3.05;2.75;;;;;;;20.28;71.68;100887.39;;;;-57
2021/08/31 05:12:58;;;;;;;2.73;2.53;;;;;;;20.27;71.68;100884.67;;;;-57
2021/08/31 05:15:57;;;;;;;2.71;2.51;;;;;;;20.26;71.74;100888.83;;;;-58
2021/08/31 05:18:58;;;;;;;7.19;6.35;;;;;;;20.27;68.95;100889.80;;;;-55
2021/08/31 05:21:58;;;;;;;9.56;6.89;;;;;;;20.18;68.37;100894.77;;;;-54
2021/08/31 05:24:57;;;;;;;9.81;7.12;;;;;;;20.00;68.72;100897.41;;;;-59
2021/08/31 05:27:57;;;;;;;9.31;6.75;;;;;;;19.94;69.34;100900.52;;;;-59
2021/08/31 05:30:58;;;;;;;7.60;6.32;;;;;;;19.94;69.91;100902.31;;;;-59
2021/08/31 05:33:57;;;;;;;6.80;6.00;;;;;;;19.95;70.19;100910.39;;;;-59
2021/08/31 05:36:58;;;;;;;6.59;5.95;;;;;;;19.98;70.27;100915.05;;;;-59
2021/08/31 05:39:58;;;;;;;7.87;5.72;;;;;;;20.00;70.45;100915.56;;;;-59
2021/08/31 05:42:57;;;;;;;6.79;5.73;;;;;;;20.02;70.56;100923.06;;;;-59
2021/08/31 05:45:57;;;;;;;6.05;5.45;;;;;;;20.03;70.70;100920.33;;;;-50
2021/08/31 05:48:57;;;;;;;6.22;5.54;;;;;;;20.04;70.65;100918.53;;;;-51
2021/08/31 05:51:58;;;;;;;6.56;5.48;;;;;;;20.05;70.72;100920.76;;;;-49
2021/08/31 05:54:58;;;;;;;5.81;5.27;;;;;;;20.06;70.77;100914.41;;;;-50
2021/08/31 05:57:57;;;;;;;5.67;5.15;;;;;;;20.06;70.82;100914.57;;;;-51
2021/08/31 06:00:58;;;;;;;6.42;4.95;;;;;;;20.07;70.79;100915.98;;;;-51
2021/08/31 06:03:57;;;;;;;5.77;5.03;;;;;;;20.07;70.85;100920.63;;;;-50
2021/08/31 06:06:57;;;;;;;5.69;5.08;;;;;;;20.07;70.91;100923.55;;;;-55
2021/08/31 06:09:58;;;;;;;6.61;4.99;;;;;;;20.08;70.92;100932.34;;;;-54
2021/08/31 06:13:00;;;;;;;5.64;5.03;;;;;;;20.08;70.93;100933.72;;;;-56
2021/08/31 06:15:57;;;;;;;5.39;4.68;;;;;;;20.07;70.96;100932.58;;;;-55
2021/08/31 06:18:58;;;;;;;5.95;4.99;;;;;;;20.08;71.00;100941.03;;;;-50
2021/08/31 06:21:57;;;;;;;5.64;4.95;;;;;;;20.07;70.97;100943.64;;;;-50
2021/08/31 06:24:58;;;;;;;5.57;4.74;;;;;;;20.07;71.11;100950.16;;;;-50
2021/08/31 06:27:57;;;;;;;5.67;4.88;;;;;;;20.08;71.05;100946.90;;;;-55
2021/08/31 06:30:57;;;;;;;5.33;4.83;;;;;;;20.08;71.08;100946.33;;;;-55
2021/08/31 06:33:58;;;;;;;5.85;4.55;;;;;;;20.07;71.09;100944.95;;;;-54
2021/08/31 06:36:57;;;;;;;5.10;4.59;;;;;;;20.08;71.10;100944.94;;;;-55
2021/08/31 06:39:57;;;;;;;5.10;4.55;;;;;;;20.09;71.10;100949.77;;;;-55
2021/08/31 06:42:58;;;;;;;5.34;4.33;;;;;;;20.11;71.10;100948.06;;;;-55
2021/08/31 06:45:57;;;;;;;5.34;4.66;;;;;;;20.09;71.12;100953.35;;;;-51
2021/08/31 06:48:57;;;;;;;5.65;4.69;;;;;;;20.09;71.10;100950.91;;;;-51
2021/08/31 06:51:57;;;;;;;4.70;4.24;;;;;;;20.09;71.17;100946.92;;;;-54
2021/08/31 06:54:57;;;;;;;5.23;4.72;;;;;;;20.09;71.19;100943.59;;;;-55
2021/08/31 06:57:58;;;;;;;5.15;4.66;;;;;;;20.09;71.22;100948.63;;;;-51
2021/08/31 07:00:57;;;;;;;4.82;4.42;;;;;;;20.09;71.18;100952.30;;;;-51
2021/08/31 07:03:57;;;;;;;4.99;4.45;;;;;;;20.09;71.17;100951.72;;;;-51
2021/08/31 07:06:57;;;;;;;4.78;4.38;;;;;;;20.08;71.19;100951.94;;;;-51
2021/08/31 07:09:57;;;;;;;4.88;4.47;;;;;;;20.09;71.17;100953.27;;;;-51
2021/08/31 07:12:58;;;;;;;5.05;4.59;;;;;;;20.09;71.22;100950.02;;;;-55
2021/08/31 07:15:57;;;;;;;5.02;4.52;;;;;;;20.09;71.19;100955.38;;;;-51
2021/08/31 07:18:57;;;;;;;4.75;4.19;;;;;;;20.09;71.20;100959.86;;;;-51
2021/08/31 07:21:57;;;;;;;4.76;4.36;;;;;;;20.09;71.21;100963.36;;;;-51
2021/08/31 07:24:58;;;;;;;4.91;4.17;;;;;;;20.09;71.20;100969.14;;;;-51
2021/08/31 07:27:57;;;;;;;4.65;4.25;;;;;;;20.11;71.20;100971.33;;;;-51
2021/08/31 07:30:58;;;;;;;4.48;4.07;;;;;;;20.11;71.17;100979.95;;;;-51
2021/08/31 07:33:57;;;;;;;4.65;4.25;;;;;;;20.10;71.18;100981.34;;;;-50
2021/08/31 07:36:57;;;;;;;4.70;4.30;;;;;;;20.10;71.16;100989.64;;;;-59
2021/08/31 07:39:57;;;;;;;4.83;4.31;;;;;;;20.10;71.22;100992.33;;;;-51
2021/08/31 07:42:57;;;;;;;4.64;4.24;;;;;;;20.10;71.18;100992.65;;;;-55
2021/08/31 07:45:57;;;;;;;4.81;4.41;;;;;;;20.10;71.22;100993.79;;;;-51
2021/08/31 07:48:58;;;;;;;4.47;4.07;;;;;;;20.09;71.25;100990.21;;;;-55
2021/08/31 07:51:57;;;;;;;4.47;4.07;;;;;;;20.10;71.18;100999.48;;;;-55
2021/08/31 07:54:58;;;;;;;4.45;4.05;;;;;;;20.09;71.25;100999.81;;;;-55
2021/08/31 07:57:57;;;;;;;5.11;4.31;;;;;;;20.10;71.21;100996.64;;;;-54
2021/08/31 08:00:57;;;;;;;4.54;4.11;;;;;;;20.10;71.21;101002.98;;;;-55
2021/08/31 08:03:58;;;;;;;4.61;4.17;;;;;;;20.10;71.22;101003.55;;;;-55
2021/08/31 08:06:57;;;;;;;4.39;4.00;;;;;;;20.10;71.22;101003.80;;;;-55
2021/08/31 08:09:57;;;;;;;4.43;4.03;;;;;;;20.11;71.21;101013.42;;;;-55
2021/08/31 08:12:57;;;;;;;4.67;4.25;;;;;;;20.16;71.15;101019.02;;;;-57
2021/08/31 08:15:58;;;;;;;4.61;4.20;;;;;;;20.17;71.26;101018.69;;;;-55
2021/08/31 08:18:58;;;;;;;5.33;4.11;;;;;;;20.18;71.32;101024.24;;;;-55
2021/08/31 08:21:57;;;;;;;4.37;3.97;;;;;;;20.19;71.48;101021.89;;;;-53
2021/08/31 08:24:58;;;;;;;4.99;4.17;;;;;;;20.20;71.51;101020.69;;;;-51
2021/08/31 08:27:57;;;;;;;5.13;3.85;;;;;;;20.22;71.50;101024.95;;;;-51
2021/08/31 08:30:57;;;;;;;4.59;4.19;;;;;;;20.24;71.56;101030.67;;;;-52
2021/08/31 08:33:58;;;;;;;5.12;4.05;;;;;;;20.25;71.57;101033.84;;;;-52
2021/08/31 08:36:59;;;;;;;6.71;4.11;;;;;;;20.26;71.57;101037.37;;;;-54
2021/08/31 08:39:57;;;;;;;4.27;3.87;;;;;;;20.28;71.59;101042.44;;;;-52
2021/08/31 08:42:57;;;;;;;4.84;4.03;;;;;;;20.30;71.67;101041.90;;;;-57
2021/08/31 08:45:57;;;;;;;4.87;4.03;;;;;;;20.31;71.62;101033.19;;;;-58
2021/08/31 08:48:58;;;;;;;5.19;3.96;;;;;;;20.32;71.63;101033.37;;;;-54
2021/08/31 08:51:57;;;;;;;4.21;3.81;;;;;;;20.33;71.58;101032.56;;;;-54
2021/08/31 08:54:57;;;;;;;4.23;3.68;;;;;;;20.35;71.60;101036.25;;;;-62
2021/08/31 08:57:57;;;;;;;4.41;3.89;;;;;;;20.36;71.61;101039.02;;;;-57
2021/08/31 09:01:00;;;;;;;4.56;3.75;;;;;;;20.37;71.66;101040.42;;;;-52
2021/08/31 09:03:57;;;;;;;3.93;3.54;;;;;;;20.37;71.59;101040.09;;;;-54
2021/08/31 09:06:58;;;;;;;4.01;3.69;;;;;;;20.39;71.65;101042.00;;;;-58
2021/08/31 09:09:57;;;;;;;5.26;3.71;;;;;;;20.40;71.72;101043.41;;;;-58
2021/08/31 09:12:58;;;;;;;7.81;3.88;;;;;;;20.41;71.79;101045.36;;;;-59
2021/08/31 09:15:57;;;;;;;4.24;3.69;;;;;;;20.43;71.75;101050.19;;;;-51
2021/08/31 09:18:57;;;;;;;8.95;3.91;;;;;;;20.44;71.58;101044.81;;;;-50
2021/08/31 09:21:58;;;;;;;5.65;3.91;;;;;;;20.47;71.89;101046.48;;;;-59
2021/08/31 09:24:57;;;;;;;4.85;4.08;;;;;;;20.49;71.67;101046.44;;;;-50
2021/08/31 09:27:57;;;;;;;7.51;4.10;;;;;;;20.49;71.62;101045.78;;;;-54
2021/08/31 09:30:57;;;;;;;5.41;4.08;;;;;;;20.50;71.54;101048.62;;;;-60
2021/08/31 09:33:57;;;;;;;9.68;3.89;;;;;;;20.50;71.62;101055.95;;;;-62
2021/08/31 09:36:58;;;;;;;4.99;4.23;;;;;;;20.52;71.67;101056.80;;;;-51
2021/08/31 09:39:57;;;;;;;5.81;3.98;;;;;;;20.53;71.66;101060.73;;;;-54
2021/08/31 09:42:58;;;;;;;6.00;4.08;;;;;;;20.54;71.64;101056.98;;;;-59
2021/08/31 09:45:57;;;;;;;4.79;3.93;;;;;;;20.55;71.83;101054.24;;;;-56
2021/08/31 09:48:57;;;;;;;6.22;3.89;;;;;;;20.55;71.60;101048.38;;;;-59
2021/08/31 09:51:57;;;;;;;5.43;4.01;;;;;;;20.56;71.58;101050.16;;;;-52
2021/08/31 09:54:58;;;;;;;4.62;4.09;;;;;;;20.57;71.68;101054.02;;;;-52
2021/08/31 09:57:57;;;;;;;6.32;3.77;;;;;;;20.57;71.55;101058.50;;;;-52
2021/08/31 10:00:57;;;;;;;6.87;3.98;;;;;;;20.56;71.73;101062.45;;;;-54
2021/08/31 10:03:57;;;;;;;14.77;4.15;;;;;;;20.56;71.53;101067.02;;;;-51
2021/08/31 10:06:57;;;;;;;6.53;3.95;;;;;;;20.58;71.58;101066.64;;;;-52
2021/08/31 10:09:57;;;;;;;7.24;3.80;;;;;;;20.59;71.65;101069.55;;;;-46
2021/08/31 10:12:57;;;;;;;9.33;4.01;;;;;;;20.58;71.67;101067.40;;;;-48
2021/08/31 10:15:57;;;;;;;6.21;3.88;;;;;;;20.60;71.73;101072.64;;;;-60
2021/08/31 10:18:57;;;;;;;7.27;3.83;;;;;;;20.60;71.65;101069.62;;;;-59
2021/08/31 10:21:57;;;;;;;9.21;4.33;;;;;;;20.59;71.49;101074.92;;;;-55
2021/08/31 10:24:58;;;;;;;5.17;4.07;;;;;;;20.59;71.51;101073.29;;;;-54
2021/08/31 10:28:00;;;;;;;8.61;4.01;;;;;;;20.58;71.46;101078.31;;;;-54
2021/08/31 10:30:57;;;;;;;6.45;3.91;;;;;;;20.58;71.46;101080.97;;;;-59
2021/08/31 10:33:57;;;;;;;6.23;3.84;;;;;;;20.57;71.47;101077.06;;;;-60
2021/08/31 10:36:57;;;;;;;5.98;3.73;;;;;;;20.56;71.47;101068.16;;;;-58
2021/08/31 10:39:57;;;;;;;8.13;3.81;;;;;;;20.55;71.40;101063.77;;;;-58
2021/08/31 10:42:57;;;;;;;6.61;3.96;;;;;;;20.56;71.35;101061.73;;;;-55
2021/08/31 10:45:57;;;;;;;5.46;3.87;;;;;;;20.55;71.38;101064.09;;;;-60
2021/08/31 10:48:57;;;;;;;7.01;3.85;;;;;;;20.54;71.33;101071.42;;;;-58
2021/08/31 10:51:57;;;;;;;5.19;3.78;;;;;;;20.54;71.31;101075.22;;;;-56
2021/08/31 10:54:57;;;;;;;5.99;3.83;;;;;;;20.54;71.30;101068.38;;;;-59
2021/08/31 10:57:57;;;;;;;3.95;3.56;;;;;;;20.54;71.21;101073.05;;;;-58
2021/08/31 11:00:57;;;;;;;6.53;4.02;;;;;;;20.54;71.27;101077.09;;;;-60
2021/08/31 11:03:57;;;;;;;5.67;3.77;;;;;;;20.54;71.26;101078.31;;;;-58
2021/08/31 11:06:57;;;;;;;5.83;3.93;;;;;;;20.54;71.23;101078.64;;;;-60
2021/08/31 11:09:58;;;;;;;5.93;3.69;;;;;;;20.53;71.23;101077.58;;;;-55
2021/08/31 11:12:57;;;;;;;4.94;3.55;;;;;;;20.53;71.19;101081.73;;;;-58
2021/08/31 11:15:57;;;;;;;5.72;3.75;;;;;;;20.52;71.20;101078.29;;;;-58
2021/08/31 11:18:57;;;;;;;4.45;3.67;;;;;;;20.53;71.17;101080.35;;;;-58
2021/08/31 11:21:57;;;;;;;5.15;3.59;;;;;;;20.52;71.18;101073.19;;;;-59
2021/08/31 11:24:57;;;;;;;4.71;3.63;;;;;;;20.54;71.13;101075.95;;;;-62
2021/08/31 11:27:57;;;;;;;4.81;3.40;;;;;;;20.55;71.15;101078.99;;;;-51
2021/08/31 11:30:57;;;;;;;7.02;3.36;;;;;;;20.56;71.48;101076.55;;;;-52
2021/08/31 11:33:57;;;;;;;5.74;3.31;;;;;;;20.59;71.23;101077.36;;;;-58
2021/08/31 11:36:57;;;;;;;5.94;3.82;;;;;;;20.60;71.27;101077.44;;;;-56
2021/08/31 11:39:57;;;;;;;7.17;3.61;;;;;;;20.62;71.31;101077.55;;;;-54
2021/08/31 11:42:57;;;;;;;6.39;3.57;;;;;;;20.62;71.30;101076.48;;;;-51
2021/08/31 11:45:57;;;;;;;7.93;3.51;;;;;;;20.65;71.24;101080.83;;;;-57
2021/08/31 11:48:57;;;;;;;4.56;3.37;;;;;;;20.63;71.23;101080.27;;;;-54
2021/08/31 11:51:57;;;;;;;5.43;3.49;;;;;;;20.63;71.24;101075.21;;;;-53
2021/08/31 11:54:58;;;;;;;6.47;3.57;;;;;;;20.63;71.26;101072.93;;;;-50
2021/08/31 11:57:58;;;;;;;5.23;3.65;;;;;;;20.64;71.24;101075.86;;;;-51
2021/08/31 12:00:57;;;;;;;8.25;3.55;;;;;;;20.64;71.31;101079.28;;;;-51
2021/08/31 12:03:57;;;;;;;6.12;3.69;;;;;;;20.64;71.28;101085.80;;;;-50
2021/08/31 12:06:58;;;;;;;6.20;3.51;;;;;;;20.65;71.28;101080.34;;;;-50
2021/08/31 12:09:57;;;;;;;5.87;3.50;;;;;;;20.65;71.27;101076.05;;;;-51
2021/08/31 12:12:57;;;;;;;5.17;3.49;;;;;;;20.66;71.25;101075.80;;;;-52
2021/08/31 12:15:58;;;;;;;3.87;3.43;;;;;;;20.66;71.33;101070.18;;;;-57
2021/08/31 12:18:57;;;;;;;4.89;3.48;;;;;;;20.67;71.28;101071.56;;;;-59
2021/08/31 12:21:57;;;;;;;4.11;3.47;;;;;;;20.68;71.34;101071.91;;;;-57
2021/08/31 12:24:57;;;;;;;5.62;3.39;;;;;;;20.68;71.41;101075.34;;;;-54
2021/08/31 12:27:57;;;;;;;9.40;3.45;;;;;;;20.68;71.39;101078.76;;;;-53
2021/08/31 12:30:57;;;;;;;5.52;3.86;;;;;;;20.69;71.43;101085.14;;;;-59
2021/08/31 12:33:57;;;;;;;5.01;3.54;;;;;;;20.69;71.33;101082.94;;;;-59
2021/08/31 12:36:57;;;;;;;5.97;3.38;;;;;;;20.68;71.29;101084.05;;;;-59
2021/08/31 12:39:58;;;;;;;4.54;3.79;;;;;;;20.68;71.31;101083.89;;;;-60
2021/08/31 12:42:57;;;;;;;3.81;3.40;;;;;;;20.67;71.29;101085.69;;;;-60
2021/08/31 12:45:57;;;;;;;4.82;3.61;;;;;;;20.66;71.27;101080.04;;;;-60
2021/08/31 12:48:57;;;;;;;6.17;3.67;;;;;;;20.66;71.18;101081.67;;;;-59
2021/08/31 12:51:57;;;;;;;3.85;3.44;;;;;;;20.65;71.23;101076.05;;;;-60
2021/08/31 12:54:57;;;;;;;3.87;3.39;;;;;;;20.65;71.20;101078.25;;;;-60
2021/08/31 12:57:57;;;;;;;6.55;3.56;;;;;;;20.67;71.21;101081.28;;;;-60
2021/08/31 13:00:57;;;;;;;6.65;3.51;;;;;;;20.67;71.16;101087.88;;;;-51
2021/08/31 13:03:58;;;;;;;4.01;3.29;;;;;;;20.67;71.20;101084.79;;;;-53
2021/08/31 13:06:57;;;;;;;3.73;3.24;;;;;;;20.67;71.24;101086.17;;;;-51
2021/08/31 13:09:57;;;;;;;3.89;3.09;;;;;;;20.69;71.29;101087.58;;;;-53
2021/08/31 13:12:57;;;;;;;5.67;3.40;;;;;;;20.70;71.32;101087.98;;;;-61
2021/08/31 13:15:57;;;;;;;4.73;3.27;;;;;;;20.70;71.35;101088.47;;;;-55
2021/08/31 13:18:57;;;;;;;5.33;3.15;;;;;;;20.70;71.25;101091.65;;;;-55
2021/08/31 13:21:57;;;;;;;4.67;3.01;;;;;;;20.73;71.20;101088.77;;;;-50
2021/08/31 13:24:58;;;;;;;3.83;3.21;;;;;;;20.72;71.25;101085.73;;;;-50
2021/08/31 13:27:57;;;;;;;6.23;3.47;;;;;;;20.72;71.23;101084.75;;;;-52
2021/08/31 13:30:57;;;;;;;3.77;3.34;;;;;;;20.72;71.23;101082.55;;;;-50
2021/08/31 13:33:58;;;;;;;5.69;3.31;;;;;;;20.72;71.26;101085.81;;;;-48
2021/08/31 13:36:57;;;;;;;5.07;3.25;;;;;;;20.74;71.26;101084.86;;;;-53
2021/08/31 13:39:57;;;;;;;5.75;3.30;;;;;;;20.76;71.26;101086.09;;;;-51
2021/08/31 13:42:58;;;;;;;5.68;3.31;;;;;;;20.76;71.33;101085.36;;;;-49
2021/08/31 13:45:57;;;;;;;5.51;3.27;;;;;;;20.77;71.26;101091.48;;;;-50
2021/08/31 13:48:57;;;;;;;7.37;3.37;;;;;;;20.76;71.22;101089.60;;;;-50
2021/08/31 13:51:58;;;;;;;7.36;3.39;;;;;;;20.76;71.26;101092.86;;;;-54
2021/08/31 13:54:57;;;;;;;4.99;3.27;;;;;;;20.76;71.26;101088.87;;;;-53
2021/08/31 13:57:57;;;;;;;5.39;3.39;;;;;;;20.77;71.29;101086.59;;;;-53
2021/08/31 14:00:57;;;;;;;5.97;3.31;;;;;;;20.77;71.26;101081.37;;;;-53
2021/08/31 14:03:59;;;;;;;4.49;3.12;;;;;;;20.77;71.24;101080.07;;;;-53
2021/08/31 14:06:57;;;;;;;4.67;2.97;;;;;;;20.76;71.23;101081.22;;;;-53
2021/08/31 14:09:57;;;;;;;4.42;3.44;;;;;;;20.75;71.19;101082.84;;;;-60
2021/08/31 14:12:58;;;;;;;4.27;3.15;;;;;;;20.74;71.14;101081.92;;;;-53
2021/08/31 14:15:57;;;;;;;5.61;3.24;;;;;;;20.74;71.19;101080.95;;;;-53
2021/08/31 14:18:57;;;;;;;4.95;3.38;;;;;;;20.73;71.15;101077.42;;;;-54
2021/08/31 14:21:59;;;;;;;5.79;3.27;;;;;;;20.72;71.12;101076.36;;;;-54
2021/08/31 14:24:57;;;;;;;5.14;3.13;;;;;;;20.72;71.13;101077.42;;;;-53
2021/08/31 14:27:57;;;;;;;4.22;3.09;;;;;;;20.71;71.08;101080.77;;;;-57
2021/08/31 14:30:57;;;;;;;3.94;3.27;;;;;;;20.70;71.11;101077.80;;;;-53
2021/08/31 14:33:57;;;;;;;3.71;3.23;;;;;;;20.69;71.09;101079.77;;;;-53
2021/08/31 14:36:57;;;;;;;3.95;3.13;;;;;;;20.70;71.08;101079.19;;;;-57
2021/08/31 14:39:57;;;;;;;5.55;3.37;;;;;;;20.69;71.03;101081.31;;;;-57
2021/08/31 14:42:57;;;;;;;4.15;3.25;;;;;;;20.71;70.97;101082.23;;;;-53
2021/08/31 14:45:57;;;;;;;5.80;3.37;;;;;;;20.73;71.19;101082.38;;;;-57
2021/08/31 14:48:57;;;;;;;5.31;3.36;;;;;;;20.72;71.16;101085.08;;;;-54
2021/08/31 14:51:57;;;;;;;5.76;3.16;;;;;;;20.74;71.26;101093.25;;;;-55
2021/08/31 14:54:57;;;;;;;8.78;3.25;;;;;;;20.74;71.25;101092.02;;;;-57
2021/08/31 14:57:57;;;;;;;3.79;3.16;;;;;;;20.76;71.29;101090.25;;;;-54
2021/08/31 15:00:57;;;;;;;3.59;3.11;;;;;;;20.76;71.31;101087.00;;;;-57
2021/08/31 15:03:57;;;;;;;3.55;3.14;;;;;;;20.76;71.35;101088.87;;;;-56
2021/08/31 15:06:57;;;;;;;3.85;3.20;;;;;;;20.77;71.28;101091.39;;;;-52
2021/08/31 15:09:57;;;;;;;3.83;3.14;;;;;;;20.77;71.33;101089.30;;;;-51
2021/08/31 15:12:57;;;;;;;4.60;3.25;;;;;;;20.77;71.40;101085.64;;;;-50
2021/08/31 15:15:57;;;;;;;4.12;3.08;;;;;;;20.76;71.52;101078.52;;;;-51
2021/08/31 15:18:57;;;;;;;4.42;3.19;;;;;;;20.78;71.39;101081.16;;;;-60
2021/08/31 15:21:57;;;;;;;4.41;3.16;;;;;;;20.78;71.46;101075.94;;;;-54
2021/08/31 15:24:57;;;;;;;7.01;3.47;;;;;;;20.81;71.39;101077.18;;;;-51
2021/08/31 15:27:57;;;;;;;5.74;3.23;;;;;;;20.81;71.42;101078.00;;;;-52
2021/08/31 15:30:57;;;;;;;5.46;3.39;;;;;;;20.82;71.42;101086.25;;;;-55
2021/08/31 15:33:57;;;;;;;5.63;3.29;;;;;;;20.82;71.57;101082.50;;;;-58
2021/08/31 15:36:57;;;;;;;6.59;3.40;;;;;;;20.83;71.41;101083.31;;;;-52
2021/08/31 15:39:58;;;;;;;6.94;3.39;;;;;;;20.81;71.42;101081.58;;;;-54
2021/08/31 15:42:58;;;;;;;9.05;3.51;;;;;;;20.81;71.51;101080.11;;;;-52
2021/08/31 15:45:57;;;;;;;7.04;3.38;;;;;;;20.81;71.46;101078.16;;;;-51
2021/08/31 15:48:57;;;;;;;9.67;3.49;;;;;;;20.82;71.43;101084.30;;;;-50
2021/08/31 15:51:57;;;;;;;13.11;3.67;;;;;;;20.85;71.44;101081.70;;;;-51
2021/08/31 15:54:57;;;;;;;9.53;3.39;;;;;;;20.85;71.46;101079.99;;;;-63
2021/08/31 15:57:57;;;;;;;9.25;3.48;;;;;;;20.85;71.44;101077.47;;;;-50
2021/08/31 16:00:57;;;;;;;6.87;3.32;;;;;;;20.85;71.47;101076.98;;;;-56
2021/08/31 16:03:57;;;;;;;6.03;3.19;;;;;;;20.86;71.47;101081.24;;;;-62
2021/08/31 16:06:57;;;;;;;5.89;3.38;;;;;;;20.85;71.45;101081.22;;;;-55
2021/08/31 16:09:57;;;;;;;6.39;3.37;;;;;;;20.86;71.46;101079.45;;;;-53
2021/08/31 16:12:57;;;;;;;3.87;3.09;;;;;;;20.86;71.47;101080.10;;;;-59
2021/08/31 16:15:57;;;;;;;7.54;3.68;;;;;;;20.87;71.42;101076.92;;;;-51
2021/08/31 16:18:57;;;;;;;6.82;3.27;;;;;;;20.88;71.41;101078.33;;;;-54
2021/08/31 16:21:57;;;;;;;8.59;3.15;;;;;;;20.89;71.37;101076.05;;;;-57
2021/08/31 16:24:57;;;;;;;4.55;3.05;;;;;;;20.89;71.53;101077.52;;;;-49
2021/08/31 16:27:57;;;;;;;5.85;3.07;;;;;;;20.89;71.44;101070.75;;;;-60
2021/08/31 16:30:57;;;;;;;5.48;3.31;;;;;;;20.89;71.41;101070.75;;;;-58
2021/08/31 16:33:57;;;;;;;4.50;3.03;;;;;;;20.89;71.48;101070.34;;;;-59
2021/08/31 16:36:57;;;;;;;5.38;3.13;;;;;;;20.89;71.54;101072.55;;;;-53
2021/08/31 16:39:57;;;;;;;4.38;3.15;;;;;;;20.89;71.58;101073.12;;;;-62
2021/08/31 16:42:57;;;;;;;5.03;3.49;;;;;;;20.89;71.55;101074.33;;;;-62